createdAt,value
2023-04-17T00:03:59.686Z,10.27
2023-04-17T00:08:56.345Z,10.25
2023-04-17T00:13:53.112Z,10.14
2023-04-17T00:18:49.453Z,10.19
2023-04-17T00:23:46.107Z,10.12
2023-04-17T00:28:42.869Z,10.13
2023-04-17T00:33:39.637Z,10.15
2023-04-17T00:38:36.124Z,10.12
2023-04-17T00:43:32.592Z,9.99
2023-04-17T00:48:29.049Z,10.07
2023-04-17T00:53:25.713Z,10.09
2023-04-17T00:58:22.281Z,10.11
2023-04-17T01:08:41.339Z,9.99
2023-04-17T01:13:45.657Z,9.97
2023-04-17T01:18:42.325Z,9.95
2023-04-17T01:23:51.707Z,9.99
2023-04-17T01:28:52.691Z,9.89
2023-04-17T01:33:49.612Z,9.97
2023-04-17T01:38:46.143Z,9.85
2023-04-17T01:43:44.428Z,9.96
2023-04-17T01:48:40.995Z,9.92
2023-04-17T01:53:39.007Z,9.85
2023-04-17T01:58:35.593Z,9.80
2023-04-17T02:03:32.628Z,9.71
2023-04-17T02:08:29.737Z,9.69
2023-04-17T02:13:26.285Z,9.86
2023-04-17T02:18:22.926Z,9.83
2023-04-17T02:23:19.468Z,9.69
2023-04-17T02:28:16.098Z,9.75
2023-04-17T02:33:12.742Z,9.78
2023-04-17T02:38:09.258Z,9.76
2023-04-17T02:43:05.845Z,9.70
2023-04-17T02:48:03.502Z,9.76
2023-04-17T02:53:00.064Z,9.71
2023-04-17T02:57:56.644Z,9.65
2023-04-17T03:02:53.483Z,9.70
2023-04-17T03:07:52.829Z,9.71
2023-04-17T03:12:49.350Z,9.72
2023-04-17T03:17:46.056Z,9.67
2023-04-17T03:22:42.639Z,9.66
2023-04-17T03:27:39.218Z,9.67
2023-04-17T03:57:09.118Z,9.61
2023-04-17T04:02:05.753Z,9.57
2023-04-17T04:07:03.630Z,9.56
2023-04-17T04:12:00.189Z,9.54
2023-04-17T04:16:57.748Z,9.51
2023-04-17T04:21:58.652Z,9.53
2023-04-17T04:32:34.627Z,9.44
2023-04-17T04:37:54.746Z,9.44
2023-04-17T04:43:44.564Z,9.54
2023-04-17T04:48:42.803Z,9.48
2023-04-17T04:53:39.463Z,9.43
2023-04-17T04:58:38.532Z,9.50
2023-04-17T05:03:37.347Z,9.50
2023-04-17T05:08:34.121Z,9.48
2023-04-17T05:13:33.920Z,9.45
2023-04-17T05:18:30.592Z,9.47
2023-04-17T05:23:28.226Z,9.48
2023-04-17T05:28:27.789Z,9.59
2023-04-17T05:33:24.564Z,9.70
2023-04-17T05:38:22.889Z,9.74
2023-04-17T05:43:21.850Z,9.77
2023-04-17T05:48:18.632Z,9.88
2023-04-17T05:53:16.551Z,9.94
2023-04-17T06:03:13.299Z,10.07
2023-04-17T06:08:10.115Z,10.16
2023-04-17T06:13:06.841Z,10.25
2023-04-17T06:18:03.487Z,10.37
2023-04-17T06:23:00.812Z,10.49
2023-04-17T06:28:00.817Z,10.63
2023-04-17T06:32:57.820Z,11.13
2023-04-17T06:37:56.615Z,11.73
2023-04-17T06:42:54.490Z,12.19
2023-04-17T06:47:52.367Z,12.56
2023-04-17T06:53:00.033Z,12.98
2023-04-17T07:03:17.717Z,12.79
2023-04-17T07:32:52.715Z,12.29
2023-04-17T07:38:10.429Z,12.23
2023-04-17T08:01:47.010Z,12.45
2023-04-17T08:24:41.693Z,12.54
2023-04-17T08:36:02.119Z,12.64
2023-04-17T08:41:32.012Z,12.80
2023-04-17T08:46:35.901Z,12.87
2023-04-17T08:51:33.379Z,12.90
2023-04-17T08:56:31.118Z,13.04
2023-04-17T09:01:33.382Z,13.08
2023-04-17T09:06:58.275Z,13.15
2023-04-17T10:13:11.932Z,13.79
2023-04-17T10:31:11.597Z,13.86
2023-04-17T11:32:16.231Z,13.68
2023-04-17T11:37:27.422Z,13.71
2023-04-17T11:42:46.420Z,13.75
2023-04-17T11:53:46.295Z,13.77
2023-04-17T11:59:06.114Z,13.76
2023-04-17T12:04:32.337Z,13.77
2023-04-17T12:15:33.008Z,13.78
2023-04-17T13:02:44.760Z,13.42
2023-04-17T13:07:43.104Z,13.35
2023-04-17T13:29:35.808Z,13.23
2023-04-17T14:12:50.006Z,12.91
2023-04-17T14:31:26.439Z,12.96
2023-04-17T14:36:30.487Z,12.94
2023-04-17T14:47:23.290Z,12.94
2023-04-17T14:59:06.452Z,12.89
2023-04-17T15:04:13.183Z,12.73
2023-04-17T18:04:12.553Z,10.56
2023-04-17T18:09:09.439Z,10.43
2023-04-17T18:14:08.007Z,10.38
2023-04-17T18:19:04.966Z,10.33
2023-04-17T18:24:01.940Z,10.24
2023-04-17T18:28:58.493Z,10.19
2023-04-17T18:33:55.022Z,10.11
2023-04-17T19:58:32.349Z,8.93
2023-04-17T20:03:30.340Z,8.94
2023-04-17T20:08:27.116Z,8.94
2023-04-17T20:13:23.626Z,8.95
2023-04-17T20:18:20.098Z,8.97
2023-04-17T20:23:16.587Z,8.99
2023-04-17T20:28:13.024Z,8.99
2023-04-17T20:33:10.690Z,9.03
2023-04-17T20:38:07.330Z,9.08
2023-04-17T20:43:03.774Z,9.12
2023-04-17T20:48:00.587Z,9.14
2023-04-17T20:52:57.115Z,9.08
2023-04-17T20:57:53.586Z,9.10
2023-04-17T21:02:50.255Z,8.98
2023-04-17T21:07:47.182Z,9.08
2023-04-17T21:12:44.553Z,9.03
2023-04-17T21:17:41.177Z,9.06
2023-04-17T21:22:38.709Z,9.03
2023-04-17T21:27:35.236Z,9.03
2023-04-17T21:32:31.716Z,9.05
2023-04-17T21:37:28.154Z,9.06
2023-04-17T21:42:25.525Z,9.03
2023-04-17T21:47:22.170Z,9.04
2023-04-17T21:52:18.812Z,9.03
2023-04-17T21:57:15.392Z,8.96
2023-04-17T22:02:11.941Z,8.99
2023-04-17T22:07:08.578Z,8.93
2023-04-17T22:12:15.205Z,8.94
2023-04-17T22:17:14.941Z,8.89
2023-04-17T22:22:11.404Z,8.82
2023-04-17T22:27:07.879Z,8.74
2023-04-17T22:32:04.408Z,8.73
2023-04-17T22:37:00.928Z,8.75
2023-04-17T22:41:57.909Z,8.69
2023-04-17T22:46:54.375Z,8.70
2023-04-17T22:51:51.073Z,8.67
2023-04-17T22:56:47.549Z,8.62
2023-04-17T23:01:46.087Z,8.57
2023-04-17T23:06:42.618Z,8.52
2023-04-17T23:11:39.220Z,8.47
2023-04-17T23:16:35.915Z,8.36
2023-04-17T23:21:32.481Z,8.28
2023-04-17T23:26:28.950Z,8.15
2023-04-17T23:31:25.498Z,8.14
2023-04-17T23:36:22.215Z,8.10
2023-04-17T23:41:18.660Z,8.01
2023-04-17T23:46:15.322Z,7.96
2023-04-17T23:51:11.772Z,7.93
2023-04-17T23:56:08.267Z,7.89
